aviador You're here:

KMAO Decoded Metar

MARION in SC, USA
Report Time2017-05-30 10:55:00
UTC Time2017-05-30 11:14:09
Flight Rules lifr LIFR
WindCalm
Visibility402 m
Phenomena:Fog
Clouds:Overcast 002 Hf
Ceiling200 ft
Temp20°C (ISA +5)
Dew Point20°C (100% RH)
QNH1018 hPa
Density Alt837 ft
Elevation92 ft
Report Wrong Elevation
Raw Report
KMAO 301055Z AUTO 00000KT 1/4SM FG OVC002 20/20 A3006 RMK AO2=

Extra information for KMAO:More info

Metar Taf Metar & Taf Last 4 Metars F.Rules Stats Wind Profile Meteogram Temp Stats Airport Information Weather charts Add Link Nearby VenuesMetar ALERT Operation Metar Decoded Social comments

AIRNAV info for KMAO